createdAt,value
2019-02-28T00:01:37.251Z,15.35
2019-02-28T00:04:07.951Z,14.10
2019-02-28T00:06:44.319Z,11.10
2019-02-28T00:09:15.413Z,11.70
2019-02-28T00:11:47.934Z,12.33
2019-02-28T00:14:18.068Z,9.95
2019-02-28T00:16:47.932Z,10.78
2019-02-28T00:19:17.651Z,9.38
2019-02-28T00:21:47.607Z,11.08
2019-02-28T00:24:17.709Z,14.00
2019-02-28T00:26:48.530Z,11.53
2019-02-28T00:29:19.135Z,11.95
2019-02-28T00:31:49.892Z,12.68
2019-02-28T00:34:21.655Z,11.38
2019-02-28T00:36:55.807Z,11.43
2019-02-28T00:39:26.584Z,9.65
2019-02-28T00:41:58.899Z,8.35
2019-02-28T00:44:31.220Z,8.80
2019-02-28T00:47:07.338Z,9.65
2019-02-28T00:49:37.185Z,10.30
2019-02-28T00:52:06.911Z,13.38
2019-02-28T00:54:44.339Z,12.43
2019-02-28T00:57:13.752Z,10.20
2019-02-28T00:59:43.707Z,12.35
2019-02-28T01:02:17.667Z,10.18
2019-02-28T01:04:45.995Z,12.13
2019-02-28T01:07:28.703Z,11.85
2019-02-28T01:10:01.519Z,9.78
2019-02-28T01:12:30.719Z,15.60
2019-02-28T01:15:00.711Z,11.00
2019-02-28T01:17:30.547Z,10.90
2019-02-28T01:20:01.501Z,11.08
2019-02-28T01:22:31.600Z,12.33
2019-02-28T01:25:11.571Z,8.88
2019-02-28T01:27:42.599Z,14.30
2019-02-28T01:30:14.542Z,9.23
2019-02-28T01:32:49.859Z,36.83
2019-02-28T01:35:19.122Z,9.05
2019-02-28T01:37:52.408Z,10.90
2019-02-28T01:40:22.419Z,10.08
2019-02-28T01:42:55.055Z,12.73
2019-02-28T01:45:30.548Z,13.22
2019-02-28T01:48:00.662Z,8.23
2019-02-28T01:50:35.555Z,13.38
2019-02-28T01:53:18.687Z,9.48
2019-02-28T01:55:48.561Z,10.58
2019-02-28T01:58:18.651Z,9.85
2019-02-28T02:00:49.430Z,14.38
2019-02-28T02:03:19.405Z,12.53
2019-02-28T02:05:51.850Z,12.05
2019-02-28T02:08:22.531Z,12.20
2019-02-28T02:10:56.038Z,14.35
2019-02-28T02:13:27.912Z,9.58
2019-02-28T02:15:57.606Z,8.15
2019-02-28T02:18:27.570Z,10.55
2019-02-28T02:21:00.928Z,21.73
2019-02-28T02:23:31.986Z,8.13
2019-02-28T02:26:01.670Z,19.50
2019-02-28T02:28:32.319Z,7.72
2019-02-28T02:31:02.094Z,23.57
2019-02-28T02:33:33.180Z,10.95
2019-02-28T02:36:03.282Z,12.58
2019-02-28T02:38:39.786Z,14.60
2019-02-28T02:41:06.576Z,11.68
2019-02-28T02:43:46.280Z,15.32
2019-02-28T02:46:20.206Z,14.07
2019-02-28T02:48:48.299Z,18.02
2019-02-28T02:51:18.386Z,8.45
2019-02-28T02:53:48.487Z,12.05
2019-02-28T02:56:19.291Z,15.50
2019-02-28T02:58:48.999Z,13.15
2019-02-28T03:01:23.290Z,14.23
2019-02-28T03:03:51.754Z,14.30
2019-02-28T03:06:21.589Z,11.28
2019-02-28T03:08:52.516Z,11.78
2019-02-28T03:11:24.663Z,14.45
2019-02-28T03:13:53.750Z,14.20
2019-02-28T03:16:34.524Z,10.53
2019-02-28T03:19:04.899Z,18.80
2019-02-28T03:21:35.761Z,10.53
2019-02-28T03:24:06.694Z,11.12
2019-02-28T03:26:41.611Z,12.03
2019-02-28T03:29:08.975Z,15.48
2019-02-28T03:31:54.534Z,12.47
2019-02-28T03:34:18.904Z,11.97
2019-02-28T03:36:55.395Z,12.58
2019-02-28T03:39:29.023Z,14.50
2019-02-28T03:42:01.408Z,11.83
2019-02-28T03:44:31.283Z,14.23
2019-02-28T03:47:01.257Z,18.62
2019-02-28T03:49:31.382Z,13.62
2019-02-28T03:52:05.024Z,15.40
2019-02-28T03:54:33.873Z,12.93
2019-02-28T03:57:04.164Z,16.97
2019-02-28T03:59:37.834Z,13.30
2019-02-28T04:02:07.517Z,15.40
2019-02-28T04:04:39.422Z,15.60
2019-02-28T04:07:15.725Z,16.15
2019-02-28T04:09:45.137Z,18.70
2019-02-28T04:12:15.294Z,17.48
2019-02-28T04:14:45.372Z,11.73
2019-02-28T04:17:17.444Z,15.38
2019-02-28T04:19:48.151Z,13.58
2019-02-28T04:22:19.655Z,12.65
2019-02-28T04:24:49.896Z,11.78
2019-02-28T04:27:26.098Z,11.20
2019-02-28T04:29:58.135Z,12.35
2019-02-28T04:32:28.005Z,11.35
2019-02-28T04:34:58.995Z,13.85
2019-02-28T04:37:29.107Z,10.40
2019-02-28T04:39:59.240Z,10.70
2019-02-28T04:42:29.332Z,15.00
2019-02-28T04:44:59.175Z,16.55
2019-02-28T04:47:41.822Z,15.50
2019-02-28T04:50:13.830Z,12.00
2019-02-28T04:52:46.725Z,17.95
2019-02-28T04:55:16.350Z,15.10
2019-02-28T04:57:52.301Z,11.85
2019-02-28T05:00:22.512Z,14.95
2019-02-28T05:02:54.882Z,11.53
2019-02-28T05:05:30.102Z,14.70
2019-02-28T05:08:04.730Z,13.00
2019-02-28T05:10:31.628Z,14.83
2019-02-28T05:13:02.705Z,13.48
2019-02-28T05:15:37.396Z,12.25
2019-02-28T05:18:05.600Z,16.75
2019-02-28T05:20:36.394Z,13.95
2019-02-28T05:23:06.123Z,18.92
2019-02-28T05:25:36.086Z,13.70
2019-02-28T05:28:07.373Z,19.87
2019-02-28T05:30:38.359Z,17.52
2019-02-28T05:33:09.953Z,19.73
2019-02-28T05:35:40.583Z,25.60
2019-02-28T05:38:10.568Z,15.43
2019-02-28T05:40:41.505Z,14.70
2019-02-28T05:43:17.458Z,14.95
2019-02-28T05:45:49.514Z,14.87
2019-02-28T05:48:19.620Z,39.10
2019-02-28T05:50:52.837Z,15.40
2019-02-28T05:53:21.300Z,16.20
2019-02-28T05:55:52.343Z,15.35
2019-02-28T05:58:22.472Z,16.73
2019-02-28T06:00:52.318Z,12.47
2019-02-28T06:03:22.321Z,17.92
2019-02-28T06:05:53.071Z,17.48
2019-02-28T06:08:25.463Z,17.60
2019-02-28T06:11:01.523Z,20.40
2019-02-28T06:13:37.503Z,12.25
2019-02-28T06:16:13.773Z,15.78
2019-02-28T06:18:43.893Z,17.10
2019-02-28T06:21:13.718Z,17.00
2019-02-28T06:23:43.438Z,13.10
2019-02-28T06:26:13.387Z,16.50
2019-02-28T06:28:46.467Z,24.12
2019-02-28T06:31:17.358Z,18.70
2019-02-28T06:33:48.120Z,14.30
2019-02-28T06:36:18.096Z,18.45
2019-02-28T06:38:48.198Z,12.82
2019-02-28T06:41:21.952Z,14.75
2019-02-28T06:43:53.073Z,32.23
2019-02-28T06:46:23.170Z,22.13
2019-02-28T06:48:52.862Z,15.55
2019-02-28T06:51:30.678Z,12.37
2019-02-28T06:54:04.364Z,10.53
2019-02-28T06:56:35.640Z,11.38
2019-02-28T06:59:05.773Z,12.35
2019-02-28T07:01:35.899Z,16.40
2019-02-28T07:04:06.699Z,15.18
2019-02-28T07:06:36.689Z,16.17
2019-02-28T07:09:07.585Z,16.27
2019-02-28T07:11:37.679Z,14.25
2019-02-28T07:14:12.940Z,19.65
2019-02-28T07:16:41.486Z,11.80
2019-02-28T07:19:27.882Z,17.67
2019-02-28T07:22:04.726Z,20.52
2019-02-28T07:24:37.598Z,13.65
2019-02-28T07:27:07.496Z,14.18
2019-02-28T07:29:43.645Z,14.43
2019-02-28T07:32:13.768Z,14.87
2019-02-28T07:34:43.855Z,19.70
2019-02-28T07:37:19.671Z,17.07
2019-02-28T07:39:50.371Z,18.17
2019-02-28T07:42:22.512Z,14.83
2019-02-28T07:44:53.692Z,24.83
2019-02-28T07:47:25.462Z,14.47
2019-02-28T07:49:55.400Z,17.73
2019-02-28T07:52:25.097Z,11.90
2019-02-28T07:54:55.878Z,23.30
2019-02-28T07:57:31.024Z,21.93
2019-02-28T08:00:01.163Z,15.13
2019-02-28T08:02:31.228Z,12.03
2019-02-28T08:05:12.103Z,14.27
2019-02-28T08:07:42.199Z,12.50
2019-02-28T08:10:24.967Z,17.63
2019-02-28T08:12:55.135Z,13.80
2019-02-28T08:15:29.951Z,15.70
2019-02-28T08:18:01.035Z,23.80
2019-02-28T08:20:33.850Z,16.50
2019-02-28T08:23:03.173Z,22.30
2019-02-28T08:25:39.721Z,44.30
2019-02-28T08:28:12.177Z,27.77
2019-02-28T08:30:42.983Z,22.10
2019-02-28T08:33:16.493Z,20.13
2019-02-28T08:35:46.899Z,15.63
2019-02-28T08:38:18.751Z,17.10
2019-02-28T08:40:51.515Z,17.17
2019-02-28T08:43:27.033Z,19.43
2019-02-28T08:45:52.727Z,16.53
2019-02-28T08:48:23.408Z,17.83
2019-02-28T08:50:55.786Z,16.83
2019-02-28T08:53:26.187Z,19.90
2019-02-28T08:55:56.311Z,24.67
2019-02-28T08:58:28.355Z,20.63
2019-02-28T09:01:01.219Z,22.40
2019-02-28T09:03:31.900Z,23.43
2019-02-28T09:06:03.809Z,18.63
2019-02-28T09:08:33.525Z,18.43
2019-02-28T09:11:09.590Z,20.83
2019-02-28T09:13:39.963Z,15.70
2019-02-28T09:16:16.321Z,19.17
2019-02-28T09:18:47.155Z,20.87
2019-02-28T09:21:18.266Z,22.03
2019-02-28T09:23:50.541Z,22.70
2019-02-28T09:26:20.639Z,27.17
2019-02-28T09:28:50.483Z,24.23
2019-02-28T09:31:20.460Z,24.37
2019-02-28T09:33:50.470Z,25.13
2019-02-28T09:36:21.531Z,21.70
2019-02-28T09:38:56.963Z,24.63
2019-02-28T09:41:22.964Z,25.27
2019-02-28T09:43:52.692Z,27.37
2019-02-28T09:46:27.620Z,27.23
2019-02-28T09:48:59.981Z,22.33
2019-02-28T09:51:33.433Z,21.50
2019-02-28T09:54:03.537Z,19.77
2019-02-28T09:56:33.395Z,29.60
2019-02-28T09:59:09.307Z,22.63
2019-02-28T10:01:39.425Z,29.20
2019-02-28T10:04:10.378Z,35.67
2019-02-28T10:06:51.549Z,26.00
2019-02-28T10:09:23.911Z,31.13
2019-02-28T10:11:53.879Z,23.20
2019-02-28T10:14:25.669Z,30.40
2019-02-28T10:16:56.753Z,31.43
2019-02-28T10:19:29.651Z,34.03
2019-02-28T10:21:59.625Z,33.80
2019-02-28T10:24:31.432Z,33.77
2019-02-28T10:27:00.919Z,28.50
2019-02-28T10:29:30.631Z,34.83
2019-02-28T10:32:00.599Z,35.13
2019-02-28T10:34:30.721Z,27.60
2019-02-28T10:37:00.827Z,32.40
2019-02-28T10:39:30.951Z,30.80
2019-02-28T10:42:01.561Z,30.37
2019-02-28T10:44:32.852Z,28.57
2019-02-28T10:47:02.969Z,39.83
2019-02-28T10:49:33.092Z,29.10
2019-02-28T10:52:03.231Z,35.93
2019-02-28T10:54:33.345Z,30.70
2019-02-28T10:57:06.139Z,30.67
2019-02-28T10:59:36.817Z,30.70
2019-02-28T11:02:07.091Z,31.90
2019-02-28T11:04:42.690Z,25.70
2019-02-28T11:07:12.665Z,27.83
2019-02-28T11:09:42.867Z,38.47
2019-02-28T11:12:19.589Z,31.40
2019-02-28T11:14:46.575Z,35.20
2019-02-28T11:17:22.317Z,24.10
2019-02-28T11:20:01.379Z,30.77
2019-02-28T11:22:31.423Z,21.47
2019-02-28T11:25:02.134Z,30.10
2019-02-28T11:27:34.920Z,28.80
2019-02-28T11:30:13.679Z,31.53
2019-02-28T11:32:43.802Z,33.53
2019-02-28T11:35:14.355Z,35.67
2019-02-28T11:37:47.259Z,29.27
2019-02-28T11:40:19.390Z,31.53
2019-02-28T11:42:49.539Z,28.60
2019-02-28T11:45:27.059Z,37.73
2019-02-28T11:47:58.482Z,29.37
2019-02-28T11:50:28.193Z,29.17
2019-02-28T11:53:04.925Z,30.13
2019-02-28T11:55:31.883Z,37.77
2019-02-28T11:58:02.103Z,26.23
2019-02-28T12:00:35.853Z,29.27
2019-02-28T12:03:06.092Z,27.83
2019-02-28T12:05:37.210Z,26.60
2019-02-28T12:08:10.320Z,22.33
2019-02-28T12:10:38.471Z,28.80
2019-02-28T12:13:09.356Z,21.40
2019-02-28T12:15:42.444Z,21.60
2019-02-28T12:18:12.419Z,20.40
2019-02-28T12:20:42.573Z,21.30
2019-02-28T12:23:12.713Z,22.90
2019-02-28T12:25:43.643Z,17.43
2019-02-28T12:28:13.582Z,26.53
2019-02-28T12:30:43.319Z,25.90
2019-02-28T12:33:15.404Z,23.90
2019-02-28T12:35:44.713Z,24.93
2019-02-28T12:38:14.639Z,24.20
2019-02-28T12:40:45.629Z,19.30
2019-02-28T12:43:16.247Z,18.67
2019-02-28T12:45:47.542Z,18.83
2019-02-28T12:48:17.796Z,20.00
2019-02-28T12:50:48.566Z,25.40
2019-02-28T12:53:24.122Z,24.10
2019-02-28T12:55:52.503Z,24.40
2019-02-28T12:58:36.108Z,20.23
2019-02-28T13:01:00.883Z,20.23
2019-02-28T13:03:31.010Z,17.20
2019-02-28T13:06:00.851Z,19.87
2019-02-28T13:08:30.558Z,20.40
2019-02-28T13:11:04.376Z,19.60
2019-02-28T13:13:32.592Z,31.87
2019-02-28T13:16:03.145Z,18.30
2019-02-28T13:18:33.249Z,18.07
2019-02-28T13:21:06.145Z,21.27
2019-02-28T13:23:34.857Z,22.13
2019-02-28T13:26:04.695Z,23.43
2019-02-28T13:28:34.664Z,33.03
2019-02-28T13:31:06.515Z,17.00
2019-02-28T13:33:36.607Z,18.27
2019-02-28T13:36:07.039Z,18.83
2019-02-28T13:38:37.335Z,21.67
2019-02-28T13:41:07.503Z,21.90
2019-02-28T13:43:37.686Z,30.37
2019-02-28T13:46:07.686Z,18.40
2019-02-28T13:48:37.681Z,25.20
2019-02-28T13:51:08.851Z,22.00
2019-02-28T13:53:47.877Z,26.77
2019-02-28T13:56:19.954Z,24.07
2019-02-28T13:58:49.931Z,24.40
2019-02-28T14:01:20.379Z,23.37
2019-02-28T14:03:51.175Z,38.47
2019-02-28T14:06:21.762Z,32.30
2019-02-28T14:08:51.732Z,37.40
2019-02-28T14:11:22.951Z,23.47
2019-02-28T14:13:53.080Z,31.30
2019-02-28T14:16:26.357Z,33.83
2019-02-28T14:18:54.811Z,22.43
2019-02-28T14:21:24.778Z,34.50
2019-02-28T14:23:59.526Z,25.23
2019-02-28T14:26:31.018Z,29.23
2019-02-28T14:29:02.245Z,39.07
2019-02-28T14:31:32.904Z,24.30
2019-02-28T14:34:03.895Z,30.00
2019-02-28T14:36:35.103Z,21.00
2019-02-28T14:39:08.328Z,30.17
2019-02-28T14:41:39.455Z,29.27
2019-02-28T14:44:13.831Z,30.07
2019-02-28T14:46:43.675Z,22.40
2019-02-28T14:49:14.261Z,26.87
2019-02-28T14:51:43.962Z,28.53
2019-02-28T14:54:15.590Z,25.13
2019-02-28T14:56:45.563Z,30.93
2019-02-28T14:59:16.331Z,27.37
2019-02-28T15:01:46.285Z,29.30
2019-02-28T15:04:18.235Z,30.07
2019-02-28T15:06:48.161Z,22.40
2019-02-28T15:09:18.271Z,24.60
2019-02-28T15:11:48.278Z,24.97
2019-02-28T15:14:24.135Z,23.27
2019-02-28T15:17:02.022Z,21.03
2019-02-28T15:19:35.187Z,34.90
2019-02-28T15:22:05.023Z,44.23
2019-02-28T15:24:36.911Z,33.93
2019-02-28T15:27:07.024Z,39.50
2019-02-28T15:29:39.002Z,26.57
2019-02-28T15:32:09.951Z,34.73
2019-02-28T15:34:41.038Z,22.57
2019-02-28T15:37:11.929Z,27.87
2019-02-28T15:39:42.120Z,28.23
2019-02-28T15:42:12.259Z,30.03
2019-02-28T15:44:42.526Z,37.53
2019-02-28T15:47:12.435Z,25.30
2019-02-28T15:49:42.622Z,32.83
2019-02-28T15:52:14.315Z,27.27
2019-02-28T15:54:44.329Z,21.67
2019-02-28T15:57:15.427Z,22.40
2019-02-28T15:59:49.791Z,31.70
2019-02-28T16:02:18.964Z,24.07
2019-02-28T16:04:50.755Z,22.33
2019-02-28T16:07:20.885Z,29.77
2019-02-28T16:09:51.067Z,24.57
2019-02-28T16:12:42.150Z,28.50
2019-02-28T16:15:13.383Z,26.57
2019-02-28T16:17:48.336Z,28.20
2019-02-28T16:20:20.164Z,33.73
2019-02-28T16:22:53.045Z,31.43
2019-02-28T16:25:40.740Z,31.20
2019-02-28T16:28:14.803Z,24.87
2019-02-28T16:30:44.947Z,23.70
2019-02-28T16:33:15.061Z,25.40
2019-02-28T16:35:46.620Z,27.50
2019-02-28T16:38:24.183Z,33.87
2019-02-28T16:40:53.873Z,24.93
2019-02-28T16:43:24.774Z,29.57
2019-02-28T16:45:55.152Z,41.30
2019-02-28T16:48:25.257Z,23.73
2019-02-28T16:50:56.936Z,27.47
2019-02-28T16:53:27.831Z,29.97
2019-02-28T16:55:57.792Z,23.00
2019-02-28T16:58:27.936Z,33.80
2019-02-28T17:00:59.664Z,27.70
2019-02-28T17:03:33.505Z,29.97
2019-02-28T17:06:03.686Z,29.47
2019-02-28T17:08:35.477Z,26.47
2019-02-28T17:11:11.288Z,28.13
2019-02-28T17:13:46.076Z,34.53
2019-02-28T17:16:17.577Z,27.70
2019-02-28T17:18:47.612Z,30.93
2019-02-28T17:21:19.552Z,37.63
2019-02-28T17:23:50.348Z,31.07
2019-02-28T17:26:22.863Z,30.10
2019-02-28T17:28:57.267Z,29.67
2019-02-28T17:31:48.227Z,28.10
2019-02-28T17:34:24.322Z,30.00
2019-02-28T17:36:53.572Z,31.53
2019-02-28T17:39:24.749Z,26.23
2019-02-28T17:41:55.576Z,28.77
2019-02-28T17:44:30.002Z,24.90
2019-02-28T17:47:13.896Z,28.17
2019-02-28T17:50:23.698Z,28.87
2019-02-28T17:53:31.868Z,25.83
2019-02-28T17:56:44.648Z,26.70
2019-02-28T17:59:55.537Z,30.23
2019-02-28T18:03:04.111Z,29.03
2019-02-28T18:06:12.136Z,28.80
2019-02-28T18:09:09.588Z,36.53
2019-02-28T18:12:28.056Z,24.10
2019-02-28T18:15:05.577Z,27.40
2019-02-28T18:18:15.271Z,25.73
2019-02-28T18:21:17.633Z,32.77
2019-02-28T18:24:43.172Z,24.77
2019-02-28T18:27:54.293Z,31.67
2019-02-28T18:31:09.225Z,30.03
2019-02-28T18:33:47.308Z,34.83
2019-02-28T18:36:22.640Z,42.40
2019-02-28T18:38:52.751Z,22.77
2019-02-28T18:41:22.883Z,23.17
2019-02-28T18:43:54.062Z,35.67
2019-02-28T18:46:29.547Z,22.30
2019-02-28T18:48:58.815Z,27.43
2019-02-28T18:51:29.539Z,25.07
2019-02-28T18:53:59.595Z,29.53
2019-02-28T18:56:30.276Z,25.67
2019-02-28T18:59:00.251Z,30.67
2019-02-28T19:01:30.187Z,27.20
2019-02-28T19:04:00.189Z,26.13
2019-02-28T19:06:33.589Z,29.07
2019-02-28T19:09:23.732Z,22.00
2019-02-28T19:11:54.125Z,28.33
2019-02-28T19:14:27.963Z,23.63
2019-02-28T19:16:58.092Z,25.00
2019-02-28T19:19:34.165Z,22.13
2019-02-28T19:22:05.277Z,33.40
2019-02-28T19:24:37.375Z,25.20
2019-02-28T19:27:09.459Z,29.33
2019-02-28T19:29:40.243Z,27.60
2019-02-28T19:32:13.153Z,21.30
2019-02-28T19:34:54.324Z,27.20
2019-02-28T19:37:25.911Z,34.00
2019-02-28T19:39:57.048Z,29.47
2019-02-28T19:42:27.591Z,25.03
2019-02-28T19:44:58.334Z,26.13
2019-02-28T19:47:30.322Z,24.00
2019-02-28T19:50:00.485Z,28.03
2019-02-28T19:52:30.600Z,28.73
2019-02-28T19:55:00.463Z,20.73
2019-02-28T19:57:30.239Z,21.00
2019-02-28T20:00:00.504Z,29.60
2019-02-28T20:02:30.531Z,23.97
2019-02-28T20:05:10.407Z,25.63
2019-02-28T20:07:42.519Z,24.97
2019-02-28T20:10:18.692Z,29.93
2019-02-28T20:12:49.523Z,25.27
2019-02-28T20:15:32.347Z,25.60
2019-02-28T20:18:05.736Z,30.97
2019-02-28T20:20:36.587Z,22.83
2019-02-28T20:23:06.628Z,30.70
2019-02-28T20:25:36.993Z,28.50
2019-02-28T20:28:12.801Z,26.97
2019-02-28T20:30:53.829Z,30.10
2019-02-28T20:33:25.959Z,28.27
2019-02-28T20:36:01.905Z,27.70
2019-02-28T20:38:40.858Z,23.70
2019-02-28T20:41:16.779Z,25.50
2019-02-28T20:43:46.639Z,29.60
2019-02-28T20:46:16.709Z,30.73
2019-02-28T20:48:47.514Z,29.70
2019-02-28T20:51:17.228Z,28.07
2019-02-28T20:53:46.944Z,46.13
2019-02-28T20:56:17.149Z,15.37
2019-02-28T20:58:47.016Z,12.90
2019-02-28T21:01:17.667Z,28.23
2019-02-28T21:03:48.148Z,19.87
2019-02-28T21:06:18.237Z,17.93
2019-02-28T21:08:50.098Z,17.30
2019-02-28T21:11:19.815Z,19.33
2019-02-28T21:13:51.688Z,18.13
2019-02-28T21:16:22.751Z,23.17
2019-02-28T21:18:54.800Z,20.57
2019-02-28T21:21:25.688Z,18.40
2019-02-28T21:23:55.659Z,18.43
2019-02-28T21:26:30.702Z,19.03
2019-02-28T21:29:00.556Z,13.87
2019-02-28T21:31:30.520Z,19.33
2019-02-28T21:34:01.304Z,14.00
2019-02-28T21:36:32.043Z,16.50
2019-02-28T21:39:09.644Z,20.77
2019-02-28T21:41:39.348Z,15.00
2019-02-28T21:44:09.088Z,20.20
2019-02-28T21:46:43.777Z,21.97
2019-02-28T21:49:13.492Z,22.43
2019-02-28T21:51:44.555Z,11.90
2019-02-28T21:54:15.613Z,11.73
2019-02-28T21:56:45.472Z,17.10
2019-02-28T21:59:16.355Z,11.50
2019-02-28T22:01:47.153Z,13.97
2019-02-28T22:04:17.820Z,13.03
2019-02-28T22:06:47.783Z,12.67
2019-02-28T22:09:18.724Z,10.47
2019-02-28T22:11:48.411Z,14.43
2019-02-28T22:14:26.381Z,16.40
2019-02-28T22:16:57.196Z,8.90
2019-02-28T22:19:27.787Z,9.93
2019-02-28T22:21:58.056Z,18.80
2019-02-28T22:24:28.876Z,15.23
2019-02-28T22:26:58.835Z,16.63
2019-02-28T22:29:28.737Z,8.50
2019-02-28T22:32:02.845Z,14.80
2019-02-28T22:34:38.095Z,10.90
2019-02-28T22:37:07.940Z,22.13
2019-02-28T22:39:37.921Z,10.63
2019-02-28T22:42:08.036Z,9.97
2019-02-28T22:44:38.871Z,15.97
2019-02-28T22:47:10.576Z,10.27
2019-02-28T22:49:40.441Z,12.20
2019-02-28T22:52:11.443Z,11.10
2019-02-28T22:54:41.459Z,13.40
2019-02-28T22:57:13.341Z,16.63
2019-02-28T22:59:45.504Z,16.30
2019-02-28T23:02:17.787Z,19.83
2019-02-28T23:04:54.412Z,29.73
2019-02-28T23:07:24.363Z,17.30
2019-02-28T23:09:54.477Z,15.10
2019-02-28T23:12:24.307Z,11.63
2019-02-28T23:14:56.172Z,17.07
2019-02-28T23:17:26.277Z,26.87
2019-02-28T23:19:56.639Z,20.27
2019-02-28T23:22:33.592Z,15.33
2019-02-28T23:25:05.560Z,14.83
2019-02-28T23:27:36.636Z,14.37
2019-02-28T23:30:22.344Z,14.00
2019-02-28T23:32:57.385Z,20.53
2019-02-28T23:35:31.188Z,14.43
2019-02-28T23:38:10.004Z,11.57
2019-02-28T23:40:39.743Z,10.60
2019-02-28T23:43:10.779Z,15.13
2019-02-28T23:45:42.596Z,11.70
2019-02-28T23:48:13.472Z,15.13
2019-02-28T23:50:43.315Z,9.60
2019-02-28T23:53:14.251Z,13.30
2019-02-28T23:55:44.357Z,12.97
2019-02-28T23:58:15.135Z,18.83
